Jaffrey, NH

2:49 AM EDT on August 26, 2016 (GMT -0400)
KNHJAFFR2 | | Change Station

Elev 1010 ft 42.82 °N, 72.02 °W | Updated 2 seconds ago

Clear
Clear
65.7 °F
Feels Like 65.7 °F
N
0.0
Wind Variable Wind from North
Gusts 0.0 mph

Today
High -- | Low -- °F
--% Chance of Precip.
Yesterday
High -- | Low -- °F
Precip. -- in
Pressure 29.99 in
Visibility 10.0 miles
Clouds Clear
Dew Point 66 °F
Humidity 99%
Rainfall 0.00 in
Snow Depth Not available.
6:06 AM 7:31 PM
Last Quarter, 37% visible
METAR KAFN 260552Z AUTO 21004KT 10SM CLR 21/18 A2999 RMK AO2 SLP154 T02110178 10244 20211 56007
Pressure 29.99 in
Visibility 10.0 miles
Clouds Clear
Dew Point 66 °F
Humidity 99%
Rainfall 0.00 in
Snow Depth Not available.
6:06 AM 7:31 PM
Last Quarter, 37% visible
METAR KAFN 260552Z AUTO 21004KT 10SM CLR 21/18 A2999 RMK AO2 SLP154 T02110178 10244 20211 56007

10-Day Weather Forecast

Almanac

Astronomy

Aug. 26, 2016 Rise Set
Actual Time
Civil Twilight
Nautical Twilight
Astronomical Twilight
Moon
Length of Visible Light
Length of Day
Tomorrow will be .
, % of the Moon is Illuminated

Today's Extremes

State Highs State Lows

Community

WunderPhotos

Upload Photos

1,935,063 photos uploaded!

WunderBlog® & News

Nearby

Air Quality

  Air Quality AQ Index Pollutant
Not available.

Snow Depth

Station Depth Elevation

Earthquake Activity

City Distance Mag. Time & Date
Minimum magnitude displayed is 2.5.

Coastal Water Temperatures

Place Temperature

Stations

Nearby Weather Stations

Station Location Temp. Windchill Dew Point Humidity Wind Precip. Elev Updated Type
                   

Watches & Warnings

There are currently no watches in effect.